Time;durP1;ratioP1;P1;durP2;ratioP2;P2;SDS_P1;SDS_P2;PMS_P1;PMS_P2;Temp;Humidity;BMP_temperature;BMP_pressure;BME280_temperature;BME280_humidity;BME280_pressure;Samples;Min_cycle;Max_cycle;Signal;HPM_P1;HPM_P2
2022/09/14 00:00:31;;;;;;;7.22;2.20;;;;;;;;;;4805797;29;20034;-69
2022/09/14 00:02:57;;;;;;;14.38;2.83;;;;;;;;;;4806017;29;20092;-69
2022/09/14 00:05:24;;;;;;;11.50;2.67;;;;;;;;;;4804958;29;20023;-69
2022/09/14 00:07:50;;;;;;;10.25;2.42;;;;;;;;;;4805812;29;20035;-69
2022/09/14 00:10:16;;;;;;;13.38;2.83;;;;;;;;;;4805464;29;20030;-70
2022/09/14 00:12:43;;;;;;;9.20;2.38;;;;;;;;;;4805638;29;20050;-69
2022/09/14 00:15:09;;;;;;;10.65;2.90;;;;;;;;;;4805519;29;20173;-69
2022/09/14 00:17:35;;;;;;;10.73;2.78;;;;;;;;;;4804670;29;20034;-69
2022/09/14 00:20:02;;;;;;;13.68;2.45;;;;;;;;;;4805826;29;20033;-69
2022/09/14 00:22:29;;;;;;;14.38;2.50;;;;;;;;;;4805456;29;20061;-69
2022/09/14 00:24:56;;;;;;;9.50;2.60;;;;;;;;;;4805005;29;20030;-69
2022/09/14 00:27:22;;;;;;;9.38;2.72;;;;;;;;;;4799000;29;20493;-69
2022/09/14 00:29:48;;;;;;;9.73;2.40;;;;;;;;;;4786215;30;20038;-69
2022/09/14 00:32:14;;;;;;;10.00;2.47;;;;;;;;;;4787329;29;20035;-69
2022/09/14 00:34:41;;;;;;;13.10;2.85;;;;;;;;;;4787233;30;20063;-69
2022/09/14 00:37:07;;;;;;;12.65;2.50;;;;;;;;;;4787332;30;20030;-69
2022/09/14 00:39:33;;;;;;;12.35;3.25;;;;;;;;;;4787162;30;20031;-69
2022/09/14 00:42:00;;;;;;;19.17;4.10;;;;;;;;;;4787327;30;20031;-69
2022/09/14 00:44:26;;;;;;;17.92;4.32;;;;;;;;;;4787477;29;20042;-69
2022/09/14 00:46:54;;;;;;;13.52;4.53;;;;;;;;;;4787395;30;20034;-69
2022/09/14 00:49:22;;;;;;;14.13;4.18;;;;;;;;;;4787221;30;20469;-69
2022/09/14 00:51:51;;;;;;;18.08;4.97;;;;;;;;;;4786682;30;20489;-69
2022/09/14 00:54:18;;;;;;;20.67;5.57;;;;;;;;;;4786968;30;20031;-69
2022/09/14 00:56:45;;;;;;;17.02;4.72;;;;;;;;;;4787183;30;20046;-69
2022/09/14 00:59:17;;;;;;;13.93;5.07;;;;;;;;;;4786137;29;20543;-69
2022/09/14 01:01:43;;;;;;;17.98;5.00;;;;;;;;;;4785774;30;20412;-69
2022/09/14 01:04:09;;;;;;;21.33;5.38;;;;;;;;;;4787218;30;20042;-69
2022/09/14 01:06:41;;;;;;;12.45;5.80;;;;;;;;;;4803525;29;20035;-69
2022/09/14 01:09:26;;;;;;;11.80;5.50;;;;;;;;;;4804875;29;20034;-70
2022/09/14 01:11:58;;;;;;;15.35;5.30;;;;;;;;;;4804730;29;20051;-69
2022/09/14 01:14:43;;;;;;;12.60;5.57;;;;;;;;;;4805093;29;20033;-69
2022/09/14 01:17:13;;;;;;;15.48;5.55;;;;;;;;;;4805039;29;20091;-69
2022/09/14 01:20:07;;;;;;;15.07;5.82;;;;;;;;;;4804797;29;20045;-69
2022/09/14 01:22:36;;;;;;;17.33;6.05;;;;;;;;;;4804417;29;20054;-69
2022/09/14 01:25:14;;;;;;;14.57;6.07;;;;;;;;;;4804717;29;20034;-69
2022/09/14 01:27:42;;;;;;;17.83;5.65;;;;;;;;;;4804789;29;20023;-69
2022/09/14 01:30:14;;;;;;;17.73;5.30;;;;;;;;;;4804975;29;20027;-69
2022/09/14 01:32:52;;;;;;;18.02;5.95;;;;;;;;;;4804880;29;20015;-69
2022/09/14 01:35:28;;;;;;;14.55;4.90;;;;;;;;;;4804711;29;20045;-68
2022/09/14 01:38:01;;;;;;;16.08;5.40;;;;;;;;;;4804703;29;20029;-69
2022/09/14 01:40:36;;;;;;;12.68;4.90;;;;;;;;;;4804698;29;20034;-69
2022/09/14 01:43:11;;;;;;;11.15;4.75;;;;;;;;;;4804490;29;20038;-69
2022/09/14 01:45:43;;;;;;;10.18;4.80;;;;;;;;;;4804531;29;20035;-68
2022/09/14 01:48:11;;;;;;;14.63;4.75;;;;;;;;;;4803556;29;20039;-69
2022/09/14 01:50:45;;;;;;;10.70;5.30;;;;;;;;;;4804664;29;20034;-69
2022/09/14 01:53:11;;;;;;;12.85;5.13;;;;;;;;;;4804864;29;20203;-69
2022/09/14 01:55:47;;;;;;;15.55;4.93;;;;;;;;;;4804475;29;20041;-69
2022/09/14 01:58:16;;;;;;;11.30;5.30;;;;;;;;;;4804632;29;20035;-69
2022/09/14 02:00:44;;;;;;;11.52;4.82;;;;;;;;;;4804484;29;20021;-69
2022/09/14 02:03:31;;;;;;;14.30;4.70;;;;;;;;;;4804599;29;20034;-68
2022/09/14 02:06:01;;;;;;;16.10;5.38;;;;;;;;;;4803100;29;20497;-68
2022/09/14 02:08:28;;;;;;;12.32;4.72;;;;;;;;;;4804717;29;20091;-68
2022/09/14 02:10:56;;;;;;;19.83;5.45;;;;;;;;;;4806081;29;20503;-69
2022/09/14 02:13:22;;;;;;;12.45;4.47;;;;;;;;;;4807630;29;20034;-69
2022/09/14 02:15:48;;;;;;;10.63;4.70;;;;;;;;;;4807590;29;20042;-69
2022/09/14 02:18:15;;;;;;;17.00;4.55;;;;;;;;;;4807683;29;20412;-68
2022/09/14 02:20:44;;;;;;;10.00;4.20;;;;;;;;;;4807145;29;20064;-68
2022/09/14 02:23:11;;;;;;;7.72;4.10;;;;;;;;;;4807685;29;20031;-69
2022/09/14 02:25:39;;;;;;;10.80;4.30;;;;;;;;;;4807386;29;20026;-69
2022/09/14 02:28:06;;;;;;;14.75;4.15;;;;;;;;;;4807517;29;20095;-69
2022/09/14 02:30:38;;;;;;;11.60;4.28;;;;;;;;;;4807303;29;20029;-69
2022/09/14 02:33:09;;;;;;;11.13;4.32;;;;;;;;;;4807313;29;20026;-68
2022/09/14 02:35:35;;;;;;;;;;;;;;;;;;4807428;29;20027;-68
2022/09/14 02:38:18;;;;;;;8.00;4.28;;;;;;;;;;4807331;29;19909;-68
2022/09/14 02:40:57;;;;;;;8.52;3.58;;;;;;;;;;4807192;29;20027;-69
2022/09/14 02:43:23;;;;;;;13.25;4.50;;;;;;;;;;4807163;29;20043;-69
2022/09/14 02:46:08;;;;;;;11.10;4.55;;;;;;;;;;4807012;29;20539;-69
2022/09/14 02:48:44;;;;;;;10.88;4.18;;;;;;;;;;4806988;29;20031;-68
2022/09/14 02:51:22;;;;;;;14.93;4.28;;;;;;;;;;4807067;29;20548;-68
2022/09/14 02:53:48;;;;;;;10.75;4.40;;;;;;;;;;4807046;29;20045;-69
2022/09/14 02:56:16;;;;;;;12.85;4.50;;;;;;;;;;4806828;29;20401;-69
2022/09/14 02:58:44;;;;;;;10.77;4.18;;;;;;;;;;4806991;29;20031;-69
2022/09/14 03:01:12;;;;;;;13.57;4.22;;;;;;;;;;4806799;29;20045;-69
2022/09/14 03:03:38;;;;;;;14.93;3.70;;;;;;;;;;4806535;29;20035;-69
2022/09/14 03:06:05;;;;;;;10.63;2.75;;;;;;;;;;4805804;29;20494;-69
2022/09/14 03:08:31;;;;;;;13.38;3.75;;;;;;;;;;4806815;29;20556;-68
2022/09/14 03:10:58;;;;;;;13.00;3.58;;;;;;;;;;4806570;29;20031;-69
2022/09/14 03:13:24;;;;;;;10.23;3.13;;;;;;;;;;4806580;29;20050;-69
2022/09/14 03:15:51;;;;;;;15.93;4.22;;;;;;;;;;4806749;29;20022;-69
2022/09/14 03:18:18;;;;;;;11.73;3.80;;;;;;;;;;4806246;29;20039;-69
2022/09/14 03:20:44;;;;;;;12.20;4.30;;;;;;;;;;4805957;29;20030;-68
2022/09/14 03:23:11;;;;;;;14.02;3.53;;;;;;;;;;4806441;29;20039;-69
2022/09/14 03:25:39;;;;;;;15.40;3.80;;;;;;;;;;4806370;29;20037;-69
2022/09/14 03:28:05;;;;;;;13.70;3.33;;;;;;;;;;4806404;29;20026;-69
2022/09/14 03:30:32;;;;;;;12.20;4.00;;;;;;;;;;4806542;29;20027;-69
2022/09/14 03:32:59;;;;;;;5.95;2.40;;;;;;;;;;4805979;29;20041;-69
2022/09/14 03:35:27;;;;;;;12.25;2.83;;;;;;;;;;4806317;29;20431;-68
2022/09/14 03:37:53;;;;;;;14.13;2.75;;;;;;;;;;4806463;29;20083;-68
2022/09/14 03:40:19;;;;;;;5.07;1.48;;;;;;;;;;4806202;29;20031;-68
2022/09/14 03:42:47;;;;;;;10.98;1.90;;;;;;;;;;4806034;29;20531;-69
2022/09/14 03:45:14;;;;;;;6.85;1.67;;;;;;;;;;4806056;29;20041;-69
2022/09/14 03:47:41;;;;;;;8.10;2.33;;;;;;;;;;4805975;29;20038;-69
2022/09/14 03:50:08;;;;;;;9.00;2.13;;;;;;;;;;4806403;29;20039;-70
2022/09/14 03:52:35;;;;;;;5.15;1.67;;;;;;;;;;4806239;29;20026;-70
2022/09/14 03:55:02;;;;;;;7.55;1.70;;;;;;;;;;4806087;29;20027;-70
2022/09/14 03:57:28;;;;;;;7.20;1.55;;;;;;;;;;4806019;29;20397;-70
2022/09/14 03:59:55;;;;;;;3.58;1.35;;;;;;;;;;4805962;29;20031;-69
2022/09/14 04:02:21;;;;;;;3.90;1.45;;;;;;;;;;4805405;29;20501;-70
2022/09/14 04:04:48;;;;;;;5.53;1.40;;;;;;;;;;4804894;29;20033;-70
2022/09/14 04:07:15;;;;;;;7.93;1.10;;;;;;;;;;4805595;29;20031;-70
2022/09/14 04:09:41;;;;;;;4.18;1.33;;;;;;;;;;4805770;29;20499;-70
2022/09/14 04:12:08;;;;;;;5.90;1.50;;;;;;;;;;4805904;29;20130;-70
2022/09/14 04:14:34;;;;;;;6.13;1.50;;;;;;;;;;4805672;29;20100;-69
2022/09/14 04:17:00;;;;;;;4.32;1.20;;;;;;;;;;4805415;29;20042;-69
2022/09/14 04:19:27;;;;;;;4.55;1.60;;;;;;;;;;4805706;29;20019;-69
2022/09/14 04:21:53;;;;;;;3.65;1.25;;;;;;;;;;4805570;29;20049;-69
2022/09/14 04:24:19;;;;;;;4.63;1.30;;;;;;;;;;4805393;29;20447;-69
2022/09/14 04:26:46;;;;;;;5.13;1.23;;;;;;;;;;4805793;29;20030;-69
2022/09/14 04:29:13;;;;;;;6.63;1.35;;;;;;;;;;4805516;29;20026;-69
2022/09/14 04:31:39;;;;;;;6.05;1.30;;;;;;;;;;4804960;29;20027;-70
2022/09/14 04:34:06;;;;;;;8.13;1.05;;;;;;;;;;4805761;29;20023;-69
2022/09/14 04:36:32;;;;;;;5.05;1.40;;;;;;;;;;4805315;29;20034;-69
2022/09/14 04:39:00;;;;;;;4.18;1.30;;;;;;;;;;4805265;29;20031;-70
2022/09/14 04:41:26;;;;;;;4.97;1.20;;;;;;;;;;4805241;29;20079;-69
2022/09/14 04:43:54;;;;;;;6.70;1.27;;;;;;;;;;4805135;29;20035;-69
2022/09/14 04:46:22;;;;;;;2.30;1.00;;;;;;;;;;4805587;29;20027;-69
2022/09/14 04:48:49;;;;;;;5.18;1.17;;;;;;;;;;4805251;29;20041;-69
2022/09/14 04:51:17;;;;;;;2.92;0.93;;;;;;;;;;4805475;29;20041;-69
2022/09/14 04:53:44;;;;;;;4.15;1.10;;;;;;;;;;4805066;29;20030;-69
2022/09/14 04:56:11;;;;;;;3.13;1.10;;;;;;;;;;4805314;29;20390;-69
2022/09/14 04:58:42;;;;;;;6.30;1.10;;;;;;;;;;4804992;29;20393;-69
2022/09/14 05:01:10;;;;;;;3.25;0.93;;;;;;;;;;4804780;29;20055;-69
2022/09/14 05:03:37;;;;;;;6.35;1.58;;;;;;;;;;4805440;29;20057;-69
2022/09/14 05:06:08;;;;;;;6.82;1.13;;;;;;;;;;4803970;29;20042;-69
2022/09/14 05:08:37;;;;;;;5.55;1.17;;;;;;;;;;4804948;29;20042;-69
2022/09/14 05:11:03;;;;;;;3.75;1.27;;;;;;;;;;4804887;29;20482;-69
2022/09/14 05:13:29;;;;;;;4.07;1.13;;;;;;;;;;4805049;29;20049;-69
2022/09/14 05:16:03;;;;;;;6.20;1.30;;;;;;;;;;4804865;29;20408;-69
2022/09/14 05:18:30;;;;;;;8.52;1.60;;;;;;;;;;4803994;29;20027;-70
2022/09/14 05:20:56;;;;;;;5.45;1.40;;;;;;;;;;4803638;29;20037;-70
2022/09/14 05:23:22;;;;;;;4.53;1.40;;;;;;;;;;4804915;29;20512;-69
2022/09/14 05:25:52;;;;;;;3.80;1.55;;;;;;;;;;4804821;29;20035;-69
2022/09/14 05:28:19;;;;;;;7.20;1.33;;;;;;;;;;4804497;29;20404;-69
2022/09/14 05:30:45;;;;;;;5.85;1.50;;;;;;;;;;4805006;29;20031;-69
2022/09/14 05:33:11;;;;;;;3.63;1.42;;;;;;;;;;4805025;29;20062;-69
2022/09/14 05:35:38;;;;;;;6.72;1.30;;;;;;;;;;4804915;29;20311;-69
2022/09/14 05:38:04;;;;;;;3.10;1.08;;;;;;;;;;4804893;29;20035;-69
2022/09/14 05:40:30;;;;;;;6.95;1.52;;;;;;;;;;4805024;29;20039;-69
2022/09/14 05:42:57;;;;;;;6.15;1.48;;;;;;;;;;4804494;29;20127;-69
2022/09/14 05:45:23;;;;;;;3.83;1.55;;;;;;;;;;4807198;29;20037;-69
2022/09/14 05:47:49;;;;;;;5.60;1.50;;;;;;;;;;4808008;29;20037;-69
2022/09/14 05:50:15;;;;;;;10.98;1.40;;;;;;;;;;4808138;29;20508;-69
2022/09/14 05:52:42;;;;;;;5.45;1.50;;;;;;;;;;4808207;29;20367;-69
2022/09/14 05:55:08;;;;;;;9.05;1.65;;;;;;;;;;4808126;29;20031;-69
2022/09/14 05:57:34;;;;;;;6.55;1.30;;;;;;;;;;4807843;29;20031;-69
2022/09/14 06:00:01;;;;;;;5.75;1.25;;;;;;;;;;4808066;29;20495;-69
2022/09/14 06:02:27;;;;;;;3.65;1.05;;;;;;;;;;4807773;29;20408;-69
2022/09/14 06:04:54;;;;;;;4.70;1.52;;;;;;;;;;4806780;29;20023;-69
2022/09/14 06:07:20;;;;;;;4.45;1.20;;;;;;;;;;4808032;29;20069;-69
2022/09/14 06:09:46;;;;;;;4.47;1.15;;;;;;;;;;4804311;29;20031;-70
2022/09/14 06:12:13;;;;;;;4.95;1.13;;;;;;;;;;4786566;29;20059;-69
2022/09/14 06:14:39;;;;;;;6.15;1.42;;;;;;;;;;4786297;29;20075;-69
2022/09/14 06:17:06;;;;;;;11.23;1.63;;;;;;;;;;4788919;30;20031;-69
2022/09/14 06:19:32;;;;;;;5.03;1.38;;;;;;;;;;4789371;30;20027;-69
2022/09/14 06:22:00;;;;;;;5.07;1.40;;;;;;;;;;4789411;29;20044;-68
2022/09/14 06:24:26;;;;;;;8.93;1.20;;;;;;;;;;4786939;29;20378;-69
2022/09/14 06:26:52;;;;;;;7.35;1.30;;;;;;;;;;4787660;29;20024;-69
2022/09/14 06:29:19;;;;;;;4.57;1.27;;;;;;;;;;4787172;30;20496;-69
2022/09/14 06:31:45;;;;;;;6.75;1.33;;;;;;;;;;4788401;30;20015;-69
2022/09/14 06:34:11;;;;;;;4.13;1.23;;;;;;;;;;4788441;29;20391;-69
2022/09/14 06:36:38;;;;;;;4.63;1.02;;;;;;;;;;4788982;30;20034;-69
2022/09/14 06:39:04;;;;;;;4.32;1.10;;;;;;;;;;4788618;30;20031;-69
2022/09/14 06:41:31;;;;;;;5.22;1.58;;;;;;;;;;4786604;30;20065;-69
2022/09/14 06:44:00;;;;;;;11.35;1.23;;;;;;;;;;4788228;30;20031;-69
2022/09/14 06:46:28;;;;;;;6.03;1.27;;;;;;;;;;4790742;29;20477;-69
2022/09/14 06:48:55;;;;;;;5.93;1.15;;;;;;;;;;4805876;29;20033;-69
2022/09/14 06:51:23;;;;;;;7.30;1.23;;;;;;;;;;4795296;29;20019;-69
2022/09/14 06:53:50;;;;;;;4.43;1.10;;;;;;;;;;4788459;30;20043;-68
2022/09/14 06:56:17;;;;;;;6.30;1.42;;;;;;;;;;4787249;29;20421;-69
2022/09/14 06:58:44;;;;;;;4.80;1.50;;;;;;;;;;4793935;29;20035;-69
2022/09/14 07:01:11;;;;;;;4.25;1.52;;;;;;;;;;4803609;29;20042;-69
2022/09/14 07:03:38;;;;;;;6.28;1.50;;;;;;;;;;4788385;29;20035;-69
2022/09/14 07:06:06;;;;;;;3.80;1.42;;;;;;;;;;4801560;29;20027;-69
2022/09/14 07:08:33;;;;;;;8.60;1.33;;;;;;;;;;4805993;29;20035;-69
2022/09/14 07:11:00;;;;;;;37.65;3.88;;;;;;;;;;4785892;29;20024;-69
2022/09/14 07:13:27;;;;;;;11.00;1.88;;;;;;;;;;4786982;30;20528;-69
2022/09/14 07:15:54;;;;;;;8.80;1.58;;;;;;;;;;4785636;29;20049;-68
2022/09/14 07:18:21;;;;;;;6.63;1.27;;;;;;;;;;4794961;29;20047;-69
2022/09/14 07:20:48;;;;;;;7.72;1.73;;;;;;;;;;4804702;29;20027;-69
2022/09/14 07:23:14;;;;;;;12.80;1.80;;;;;;;;;;4790658;29;20053;-70
2022/09/14 07:25:41;;;;;;;5.60;1.33;;;;;;;;;;4786243;29;20043;-67
2022/09/14 07:28:07;;;;;;;7.82;1.45;;;;;;;;;;4786181;29;20405;-67
2022/09/14 07:30:37;;;;;;;4.82;1.38;;;;;;;;;;4786021;30;20042;-68
2022/09/14 07:33:04;;;;;;;6.93;1.33;;;;;;;;;;4787239;29;20031;-67
2022/09/14 07:35:31;;;;;;;10.32;1.58;;;;;;;;;;4801667;29;20037;-67
2022/09/14 07:37:58;;;;;;;5.40;1.45;;;;;;;;;;4804582;29;20516;-67
2022/09/14 07:40:25;;;;;;;11.13;1.73;;;;;;;;;;4805126;29;20029;-67
2022/09/14 07:42:55;;;;;;;5.95;1.50;;;;;;;;;;4804646;29;20050;-67
2022/09/14 07:45:21;;;;;;;7.68;1.40;;;;;;;;;;4804104;29;20485;-67
2022/09/14 07:47:48;;;;;;;12.57;1.77;;;;;;;;;;4805036;29;20058;-67
2022/09/14 07:50:14;;;;;;;8.73;1.48;;;;;;;;;;4799288;29;20027;-68
2022/09/14 07:52:40;;;;;;;8.63;1.45;;;;;;;;;;4787051;29;20042;-67
2022/09/14 07:55:07;;;;;;;4.70;1.33;;;;;;;;;;4787039;29;20031;-67
2022/09/14 07:57:33;;;;;;;13.85;1.50;;;;;;;;;;4786827;29;20032;-69
2022/09/14 08:00:00;;;;;;;7.05;1.70;;;;;;;;;;4786818;30;20649;-69
2022/09/14 08:02:27;;;;;;;14.20;2.35;;;;;;;;;;4786774;30;20046;-69
2022/09/14 08:04:54;;;;;;;6.45;1.30;;;;;;;;;;4787314;29;20371;-69
2022/09/14 08:07:20;;;;;;;6.90;1.50;;;;;;;;;;4792892;29;20039;-69
2022/09/14 08:09:46;;;;;;;12.68;1.42;;;;;;;;;;4804615;29;20393;-69
2022/09/14 08:12:15;;;;;;;9.27;1.45;;;;;;;;;;4787707;29;20436;-69
2022/09/14 08:14:41;;;;;;;9.00;1.52;;;;;;;;;;4786498;30;20039;-69
2022/09/14 08:17:09;;;;;;;7.85;1.40;;;;;;;;;;4786316;29;20398;-69
2022/09/14 08:19:36;;;;;;;7.38;1.48;;;;;;;;;;4786331;30;20416;-69
2022/09/14 08:22:03;;;;;;;9.05;1.80;;;;;;;;;;4786032;29;20035;-69
2022/09/14 08:24:31;;;;;;;9.18;1.83;;;;;;;;;;4785845;30;20023;-69
2022/09/14 08:26:57;;;;;;;5.20;1.38;;;;;;;;;;4785816;30;20494;-69
2022/09/14 08:29:23;;;;;;;10.38;1.55;;;;;;;;;;4785684;30;20039;-69
2022/09/14 08:31:50;;;;;;;4.85;1.55;;;;;;;;;;4786275;29;20027;-69
2022/09/14 08:34:17;;;;;;;8.50;2.05;;;;;;;;;;4786215;29;20413;-69
2022/09/14 08:36:44;;;;;;;6.47;1.60;;;;;;;;;;4785843;30;20031;-69
2022/09/14 08:39:12;;;;;;;6.30;1.48;;;;;;;;;;4785131;30;20038;-68
2022/09/14 08:41:40;;;;;;;6.63;1.63;;;;;;;;;;4786110;30;20047;-69
2022/09/14 08:44:26;;;;;;;7.80;1.33;;;;;;;;;;4786195;30;20024;-69
2022/09/14 08:46:59;;;;;;;5.20;1.40;;;;;;;;;;4790189;29;20031;-68
2022/09/14 08:49:25;;;;;;;10.30;1.67;;;;;;;;;;4804041;29;20075;-68
2022/09/14 08:51:52;;;;;;;3.28;1.45;;;;;;;;;;4803536;29;20404;-69
2022/09/14 08:54:18;;;;;;;6.88;1.40;;;;;;;;;;4803963;29;20031;-68
2022/09/14 08:56:47;;;;;;;6.85;1.73;;;;;;;;;;4803975;29;20038;-68
2022/09/14 08:59:30;;;;;;;7.43;1.45;;;;;;;;;;4788200;29;20031;-69
2022/09/14 09:01:56;;;;;;;3.55;1.40;;;;;;;;;;4785758;29;20490;-68
2022/09/14 09:04:41;;;;;;;3.83;1.50;;;;;;;;;;4786407;29;20410;-69
2022/09/14 09:07:30;;;;;;;7.10;1.55;;;;;;;;;;4803304;29;20035;-68
2022/09/14 09:09:57;;;;;;;2.90;1.40;;;;;;;;;;4803931;29;20523;-69
2022/09/14 09:12:35;;;;;;;5.22;1.77;;;;;;;;;;4803818;29;20055;-68
2022/09/14 09:15:04;;;;;;;5.65;1.48;;;;;;;;;;4803846;29;20038;-69
2022/09/14 09:17:33;;;;;;;5.85;1.55;;;;;;;;;;4803754;29;20042;-69
2022/09/14 09:20:09;;;;;;;7.40;1.52;;;;;;;;;;4801616;29;20075;-68
2022/09/14 09:22:39;;;;;;;5.32;1.48;;;;;;;;;;4789490;30;20045;-69
2022/09/14 09:25:09;;;;;;;5.22;1.60;;;;;;;;;;4794642;29;20031;-68
2022/09/14 09:27:36;;;;;;;7.90;1.80;;;;;;;;;;4793704;29;20446;-69
2022/09/14 09:30:02;;;;;;;6.68;1.80;;;;;;;;;;4789207;30;20023;-69
2022/09/14 09:32:28;;;;;;;7.55;2.20;;;;;;;;;;4789177;30;20046;-68
2022/09/14 09:34:55;;;;;;;7.43;2.15;;;;;;;;;;4789160;29;20031;-69
2022/09/14 09:37:23;;;;;;;7.97;2.60;;;;;;;;;;4789908;30;20379;-69
2022/09/14 09:39:50;;;;;;;5.70;2.03;;;;;;;;;;4789505;30;20032;-69
2022/09/14 09:42:21;;;;;;;8.30;2.65;;;;;;;;;;4789877;30;20050;-69
2022/09/14 09:45:01;;;;;;;5.38;2.30;;;;;;;;;;4787082;29;20438;-69
2022/09/14 09:47:36;;;;;;;8.27;1.80;;;;;;;;;;4787826;30;20027;-68
2022/09/14 09:50:05;;;;;;;7.47;1.92;;;;;;;;;;4789340;29;20031;-69
2022/09/14 09:52:33;;;;;;;6.60;2.00;;;;;;;;;;4788894;30;20034;-68
2022/09/14 09:55:00;;;;;;;6.55;2.35;;;;;;;;;;4787728;30;20029;-69
2022/09/14 09:57:26;;;;;;;7.80;2.45;;;;;;;;;;4789255;29;20038;-69
2022/09/14 10:00:07;;;;;;;5.38;1.83;;;;;;;;;;4788660;30;20442;-70
2022/09/14 10:02:33;;;;;;;6.32;2.15;;;;;;;;;;4789083;30;20043;-69
2022/09/14 10:05:00;;;;;;;7.00;2.03;;;;;;;;;;4793662;29;20103;-69
2022/09/14 10:07:27;;;;;;;6.38;2.10;;;;;;;;;;4807290;29;20034;-69
2022/09/14 10:10:05;;;;;;;6.47;1.92;;;;;;;;;;4807161;29;20029;-69
2022/09/14 10:12:32;;;;;;;7.93;2.00;;;;;;;;;;4806998;29;20054;-69
2022/09/14 10:15:15;;;;;;;4.63;1.75;;;;;;;;;;4807051;29;20027;-69
2022/09/14 10:17:53;;;;;;;9.50;1.83;;;;;;;;;;4806978;29;20023;-68
2022/09/14 10:20:21;;;;;;;6.68;1.90;;;;;;;;;;4807326;29;20489;-69
2022/09/14 10:22:47;;;;;;;5.70;1.50;;;;;;;;;;4807409;29;20461;-69
2022/09/14 10:25:13;;;;;;;3.65;1.70;;;;;;;;;;4806835;29;20027;-68
2022/09/14 10:27:51;;;;;;;5.00;1.80;;;;;;;;;;4807149;29;20039;-68
2022/09/14 10:30:20;;;;;;;6.68;1.90;;;;;;;;;;4806711;29;20410;-69
2022/09/14 10:32:49;;;;;;;7.18;1.80;;;;;;;;;;4806863;29;20511;-68
2022/09/14 10:35:16;;;;;;;6.65;1.63;;;;;;;;;;4793206;29;20041;-69
2022/09/14 10:38:00;;;;;;;4.55;1.63;;;;;;;;;;4788507;30;20442;-69
2022/09/14 10:40:36;;;;;;;5.97;1.65;;;;;;;;;;4788703;29;20455;-68
2022/09/14 10:43:16;;;;;;;10.55;2.33;;;;;;;;;;4788868;29;20051;-68
2022/09/14 10:45:56;;;;;;;6.03;1.80;;;;;;;;;;4788679;30;20028;-68
2022/09/14 10:48:32;;;;;;;9.70;2.00;;;;;;;;;;4788372;30;20037;-68
2022/09/14 10:51:22;;;;;;;8.02;2.03;;;;;;;;;;4788372;30;20024;-68
2022/09/14 10:53:48;;;;;;;6.05;2.08;;;;;;;;;;4788823;30;20035;-69
2022/09/14 10:56:20;;;;;;;4.97;1.67;;;;;;;;;;4788650;29;20030;-68
2022/09/14 10:59:07;;;;;;;5.78;1.63;;;;;;;;;;4788599;30;20378;-69
2022/09/14 11:01:43;;;;;;;8.25;2.28;;;;;;;;;;4788313;30;20043;-69
2022/09/14 11:04:21;;;;;;;8.07;1.98;;;;;;;;;;4788312;30;20034;-69
2022/09/14 11:06:47;;;;;;;5.75;1.60;;;;;;;;;;4770417;30;20096;-68
2022/09/14 11:09:14;;;;;;;7.15;1.70;;;;;;;;;;4770872;30;20030;-68
2022/09/14 11:11:46;;;;;;;4.47;1.50;;;;;;;;;;4793981;29;20066;-68
2022/09/14 11:14:12;;;;;;;4.82;1.50;;;;;;;;;;4799892;29;20399;-68
2022/09/14 11:16:57;;;;;;;4.82;1.40;;;;;;;;;;4787307;30;20091;-69
2022/09/14 11:19:29;;;;;;;6.95;1.90;;;;;;;;;;4798225;29;20023;-69
2022/09/14 11:21:58;;;;;;;6.43;1.83;;;;;;;;;;4770069;30;20044;-68
2022/09/14 11:24:29;;;;;;;5.45;1.60;;;;;;;;;;4770101;30;20507;-67
2022/09/14 11:27:02;;;;;;;6.95;1.50;;;;;;;;;;4769977;30;20388;-68
2022/09/14 11:29:31;;;;;;;6.85;1.85;;;;;;;;;;4770064;30;20398;-69
2022/09/14 11:32:03;;;;;;;6.70;2.05;;;;;;;;;;4769364;30;20058;-68
2022/09/14 11:34:38;;;;;;;7.22;1.70;;;;;;;;;;4770016;30;20039;-68
2022/09/14 11:37:08;;;;;;;6.03;1.42;;;;;;;;;;4769949;30;20402;-69
2022/09/14 11:39:41;;;;;;;5.80;1.90;;;;;;;;;;4780790;29;20487;-68
2022/09/14 11:42:22;;;;;;;6.07;1.90;;;;;;;;;;4790539;29;20066;-69
2022/09/14 11:44:53;;;;;;;7.40;1.85;;;;;;;;;;4792393;29;20030;-69
2022/09/14 11:47:22;;;;;;;5.50;1.60;;;;;;;;;;4804618;29;20019;-68
2022/09/14 11:49:58;;;;;;;7.15;1.60;;;;;;;;;;4805059;29;20027;-68
2022/09/14 11:52:26;;;;;;;8.05;2.22;;;;;;;;;;4805441;29;20023;-68
2022/09/14 11:54:52;;;;;;;6.25;1.50;;;;;;;;;;4805595;29;20041;-69
2022/09/14 11:57:29;;;;;;;7.60;2.17;;;;;;;;;;4789749;29;20032;-69
2022/09/14 11:59:57;;;;;;;7.78;1.85;;;;;;;;;;4786740;30;20039;-69
2022/09/14 12:02:23;;;;;;;6.80;1.77;;;;;;;;;;4786960;29;20109;-69
2022/09/14 12:05:05;;;;;;;7.82;1.98;;;;;;;;;;4785894;29;20363;-69
2022/09/14 12:07:46;;;;;;;7.88;1.85;;;;;;;;;;4787162;29;20378;-69
2022/09/14 12:10:15;;;;;;;5.10;1.52;;;;;;;;;;4788410;29;20031;-69
2022/09/14 12:12:43;;;;;;;6.87;1.80;;;;;;;;;;4804924;29;20065;-68
2022/09/14 12:15:32;;;;;;;10.25;2.03;;;;;;;;;;4804602;29;20108;-69
2022/09/14 12:18:08;;;;;;;9.13;1.75;;;;;;;;;;4805000;29;20515;-69
2022/09/14 12:20:37;;;;;;;8.75;1.83;;;;;;;;;;4804607;29;20390;-69
2022/09/14 12:23:05;;;;;;;4.70;1.53;;;;;;;;;;4805014;29;20546;-69
2022/09/14 12:25:33;;;;;;;7.03;1.65;;;;;;;;;;4804924;29;20037;-69
2022/09/14 12:27:59;;;;;;;7.78;2.00;;;;;;;;;;4804557;29;20023;-68
2022/09/14 12:30:40;;;;;;;7.57;1.83;;;;;;;;;;4804974;29;20032;-69
2022/09/14 12:33:26;;;;;;;11.75;2.05;;;;;;;;;;4804732;29;20041;-68
2022/09/14 12:35:52;;;;;;;8.35;1.83;;;;;;;;;;4804236;29;20023;-69
2022/09/14 12:38:30;;;;;;;9.63;1.58;;;;;;;;;;4804810;29;20090;-68
2022/09/14 12:41:15;;;;;;;6.75;1.80;;;;;;;;;;4804983;29;20031;-68
2022/09/14 12:43:41;;;;;;;10.57;1.98;;;;;;;;;;4804028;29;20050;-68
2022/09/14 12:46:07;;;;;;;7.28;2.00;;;;;;;;;;4803131;29;20053;-69
2022/09/14 12:48:54;;;;;;;8.32;1.70;;;;;;;;;;4803860;29;20479;-69
2022/09/14 12:51:20;;;;;;;8.18;2.10;;;;;;;;;;4803120;29;20053;-68
2022/09/14 12:53:50;;;;;;;7.43;1.75;;;;;;;;;;4804267;29;20031;-69
2022/09/14 12:56:24;;;;;;;9.25;2.17;;;;;;;;;;4804667;29;20027;-69
2022/09/14 12:58:58;;;;;;;8.93;2.13;;;;;;;;;;4803855;29;20035;-69
2022/09/14 13:01:35;;;;;;;9.85;1.85;;;;;;;;;;4804502;29;20035;-69
2022/09/14 13:04:02;;;;;;;8.20;1.92;;;;;;;;;;4803458;29;20031;-68
2022/09/14 13:06:40;;;;;;;9.63;2.05;;;;;;;;;;4787064;29;20035;-69
2022/09/14 13:09:11;;;;;;;9.18;2.20;;;;;;;;;;4786382;29;20028;-69
2022/09/14 13:11:40;;;;;;;9.82;2.15;;;;;;;;;;4797275;29;20061;-69
2022/09/14 13:14:07;;;;;;;10.55;1.98;;;;;;;;;;4804198;29;20035;-68
2022/09/14 13:16:39;;;;;;;14.27;2.38;;;;;;;;;;4804732;29;20041;-69
2022/09/14 13:19:06;;;;;;;9.40;2.03;;;;;;;;;;4804177;29;20508;-69
2022/09/14 13:21:33;;;;;;;21.23;2.50;;;;;;;;;;4803663;29;20043;-69
2022/09/14 13:23:59;;;;;;;11.00;2.25;;;;;;;;;;4804472;29;20053;-69
2022/09/14 13:26:27;;;;;;;13.27;2.45;;;;;;;;;;4802811;29;20497;-69
2022/09/14 13:28:54;;;;;;;7.93;2.10;;;;;;;;;;4804137;29;20400;-69
2022/09/14 13:31:31;;;;;;;7.43;1.90;;;;;;;;;;4804138;29;20029;-69
2022/09/14 13:33:58;;;;;;;10.75;2.13;;;;;;;;;;4804472;29;20038;-69
2022/09/14 13:36:29;;;;;;;9.07;2.10;;;;;;;;;;4801072;29;20501;-70
2022/09/14 13:39:00;;;;;;;10.05;2.45;;;;;;;;;;4786180;29;20038;-68
2022/09/14 13:41:27;;;;;;;6.57;2.30;;;;;;;;;;4785816;29;20032;-69
2022/09/14 13:43:54;;;;;;;8.20;2.13;;;;;;;;;;4786211;30;20043;-68
2022/09/14 13:46:21;;;;;;;8.75;2.13;;;;;;;;;;4783765;29;20039;-69
2022/09/14 13:48:48;;;;;;;13.68;2.50;;;;;;;;;;4784135;30;20034;-69
2022/09/14 13:51:15;;;;;;;12.88;2.45;;;;;;;;;;4786115;29;20028;-68
2022/09/14 13:53:47;;;;;;;11.25;2.65;;;;;;;;;;4785803;29;20042;-68
2022/09/14 13:56:33;;;;;;;11.65;2.40;;;;;;;;;;4785751;30;20034;-69
2022/09/14 13:59:11;;;;;;;15.43;3.15;;;;;;;;;;4785683;30;20508;-68
2022/09/14 14:01:52;;;;;;;19.52;2.90;;;;;;;;;;4785769;29;20039;-69
2022/09/14 14:04:18;;;;;;;;;;;;;;;;;;4785904;29;20032;-69
2022/09/14 14:06:45;;;;;;;10.55;2.50;;;;;;;;;;4787912;30;19917;-68
2022/09/14 14:09:11;;;;;;;15.30;2.95;;;;;;;;;;4788975;30;20042;-68
2022/09/14 14:11:39;;;;;;;15.50;2.65;;;;;;;;;;4799947;29;20038;-68
2022/09/14 14:14:15;;;;;;;15.18;2.60;;;;;;;;;;4805871;29;20526;-68
2022/09/14 14:16:43;;;;;;;13.23;2.72;;;;;;;;;;4807217;29;20035;-68
2022/09/14 14:19:26;;;;;;;16.15;3.13;;;;;;;;;;4807118;29;20064;-68
2022/09/14 14:22:11;;;;;;;15.32;2.50;;;;;;;;;;4806836;29;20030;-69
2022/09/14 14:24:37;;;;;;;17.65;2.92;;;;;;;;;;4806678;29;20031;-68
2022/09/14 14:27:03;;;;;;;14.63;2.53;;;;;;;;;;4807026;29;20033;-68
2022/09/14 14:29:30;;;;;;;12.77;2.60;;;;;;;;;;4806389;29;20030;-68
2022/09/14 14:31:57;;;;;;;13.90;2.75;;;;;;;;;;4801560;29;20039;-69
2022/09/14 14:34:25;;;;;;;14.73;2.90;;;;;;;;;;4788856;30;20016;-68
2022/09/14 14:36:51;;;;;;;13.43;3.00;;;;;;;;;;4788944;29;20042;-68
2022/09/14 14:39:19;;;;;;;17.33;3.33;;;;;;;;;;4789109;30;20049;-69
2022/09/14 14:41:46;;;;;;;13.75;2.67;;;;;;;;;;4788914;29;20045;-68
2022/09/14 14:44:15;;;;;;;16.65;2.97;;;;;;;;;;4789022;30;20025;-68
2022/09/14 14:46:43;;;;;;;16.08;2.75;;;;;;;;;;4787967;29;20464;-68
2022/09/14 14:49:13;;;;;;;13.10;2.85;;;;;;;;;;4788869;30;20043;-68
2022/09/14 14:51:39;;;;;;;17.17;3.05;;;;;;;;;;4798805;29;20393;-68